createdAt,value
2019-04-25T00:02:34.566Z,16.80
2019-04-25T00:05:04.706Z,16.70
2019-04-25T00:07:33.805Z,16.70
2019-04-25T00:10:03.044Z,16.60
2019-04-25T00:12:32.515Z,16.50
2019-04-25T00:15:01.823Z,16.50
2019-04-25T00:17:32.548Z,16.40
2019-04-25T00:20:01.866Z,16.30
2019-04-25T00:22:51.545Z,16.20
2019-04-25T00:25:52.788Z,16.10
2019-04-25T00:28:22.160Z,16.00
2019-04-25T00:30:52.263Z,15.90
2019-04-25T00:33:22.187Z,15.80
2019-04-25T00:35:51.759Z,15.70
2019-04-25T00:38:22.216Z,15.70
2019-04-25T00:40:52.449Z,15.60
2019-04-25T00:43:22.519Z,15.60
2019-04-25T00:45:52.654Z,15.60
2019-04-25T00:48:22.323Z,15.50
2019-04-25T00:50:52.111Z,15.40
2019-04-25T00:53:22.216Z,15.30
2019-04-25T00:55:52.503Z,15.20
2019-04-25T00:58:33.179Z,15.10
2019-04-25T01:01:21.796Z,15.00
2019-04-25T01:03:53.226Z,15.00
2019-04-25T01:06:22.047Z,14.90
2019-04-25T01:08:51.809Z,14.80
2019-04-25T01:11:22.086Z,14.70
2019-04-25T01:13:52.513Z,14.60
2019-04-25T01:16:22.240Z,14.50
2019-04-25T01:18:51.639Z,14.40
2019-04-25T01:21:20.654Z,14.20
2019-04-25T01:23:49.806Z,14.10
2019-04-25T01:26:18.938Z,13.90
2019-04-25T01:28:48.144Z,13.80
2019-04-25T01:31:20.060Z,13.70
2019-04-25T01:33:49.284Z,13.60
2019-04-25T01:36:34.606Z,13.50
2019-04-25T01:39:14.420Z,13.40
2019-04-25T01:42:05.703Z,13.30
2019-04-25T01:44:38.703Z,13.20
2019-04-25T01:47:08.323Z,13.10
2019-04-25T01:49:37.399Z,13.00
2019-04-25T01:52:06.589Z,12.90
2019-04-25T01:54:35.666Z,12.80
2019-04-25T01:57:06.076Z,12.80
2019-04-25T01:59:35.281Z,12.70
2019-04-25T02:02:06.776Z,12.60
2019-04-25T02:04:36.059Z,12.60
2019-04-25T02:07:06.261Z,12.50
2019-04-25T02:09:35.464Z,12.40
2019-04-25T02:12:16.160Z,12.40
2019-04-25T02:14:45.338Z,12.30
2019-04-25T02:17:15.078Z,12.20
2019-04-25T02:19:44.288Z,12.20
2019-04-25T02:22:14.543Z,12.10
2019-04-25T02:24:43.884Z,12.00
2019-04-25T02:27:14.458Z,12.00
2019-04-25T02:29:44.787Z,11.90
2019-04-25T02:32:14.608Z,11.80
2019-04-25T02:34:45.540Z,11.70
2019-04-25T02:37:14.796Z,11.60
2019-04-25T02:39:44.742Z,11.50
2019-04-25T02:42:16.720Z,11.50
2019-04-25T02:44:50.452Z,11.40
2019-04-25T02:47:29.868Z,11.30
2019-04-25T02:50:34.334Z,11.30
2019-04-25T02:53:34.472Z,11.20
2019-04-25T02:56:05.042Z,11.20
2019-04-25T02:58:34.319Z,11.10
2019-04-25T03:01:16.207Z,11.00
2019-04-25T03:03:35.891Z,11.00
2019-04-25T03:06:07.591Z,10.90
2019-04-25T03:08:36.136Z,10.80
2019-04-25T03:11:07.202Z,10.80
2019-04-25T03:13:36.305Z,10.70
2019-04-25T03:16:08.872Z,10.70
2019-04-25T03:18:44.279Z,10.70
2019-04-25T03:21:24.838Z,10.60
2019-04-25T03:23:54.940Z,10.60
2019-04-25T03:26:23.972Z,10.50
2019-04-25T03:28:53.764Z,10.40
2019-04-25T03:31:44.748Z,10.30
2019-04-25T03:34:19.114Z,10.30
2019-04-25T03:36:44.972Z,10.20
2019-04-25T03:39:16.308Z,10.20
2019-04-25T03:41:45.566Z,10.20
2019-04-25T03:44:14.976Z,10.10
2019-04-25T03:46:44.288Z,10.10
2019-04-25T03:49:13.919Z,10.10
2019-04-25T03:51:43.871Z,10.10
2019-04-25T03:54:14.246Z,10.10
2019-04-25T03:56:53.312Z,10.00
2019-04-25T03:59:16.030Z,10.00
2019-04-25T04:01:45.223Z,10.00
2019-04-25T04:04:16.222Z,10.00
2019-04-25T04:06:45.131Z,10.00
2019-04-25T04:09:15.150Z,10.10
2019-04-25T04:11:44.386Z,10.20
2019-04-25T04:14:15.391Z,10.30
2019-04-25T04:17:05.078Z,10.60
2019-04-25T04:19:39.900Z,10.70
2019-04-25T04:22:16.795Z,10.90
2019-04-25T04:24:49.708Z,11.00
2019-04-25T04:27:18.981Z,11.20
2019-04-25T04:29:48.402Z,11.30
2019-04-25T04:32:17.769Z,11.40
2019-04-25T04:34:46.888Z,11.50
2019-04-25T04:37:16.338Z,11.60
2019-04-25T04:39:45.494Z,11.70
2019-04-25T04:42:14.932Z,11.70
2019-04-25T04:44:44.855Z,12.10
2019-04-25T04:47:15.374Z,13.00
2019-04-25T04:49:44.710Z,14.00
2019-04-25T04:52:14.714Z,15.30
2019-04-25T04:54:44.638Z,16.90
2019-04-25T04:57:23.134Z,18.20
2019-04-25T04:59:44.607Z,19.30
2019-04-25T05:02:23.545Z,20.40
2019-04-25T05:05:14.255Z,21.50
2019-04-25T05:07:53.813Z,22.70
2019-04-25T05:10:23.670Z,23.70
2019-04-25T05:12:53.678Z,24.60
2019-04-25T05:15:24.601Z,25.20
2019-04-25T05:17:54.168Z,25.90
2019-04-25T05:20:24.238Z,26.60
2019-04-25T05:22:55.050Z,27.10
2019-04-25T05:25:24.796Z,27.30
2019-04-25T05:28:00.768Z,27.70
2019-04-25T05:30:34.108Z,28.10
2019-04-25T05:33:03.954Z,28.30
2019-04-25T05:35:33.351Z,28.70
2019-04-25T05:38:03.436Z,29.00
2019-04-25T05:40:34.303Z,29.20
2019-04-25T05:43:09.917Z,29.40
2019-04-25T05:45:39.161Z,29.70
2019-04-25T05:48:08.330Z,30.00
2019-04-25T05:50:37.495Z,30.30
2019-04-25T05:53:06.638Z,30.40
2019-04-25T05:55:35.759Z,30.50
2019-04-25T05:58:04.930Z,30.70
2019-04-25T06:00:34.314Z,30.80
2019-04-25T06:03:03.848Z,30.90
2019-04-25T06:05:33.589Z,30.90
2019-04-25T06:08:04.368Z,31.00
2019-04-25T06:10:45.221Z,31.20
2019-04-25T06:13:39.550Z,31.20
2019-04-25T06:16:14.136Z,31.20
2019-04-25T06:18:49.363Z,31.20
2019-04-25T06:21:19.283Z,31.10
2019-04-25T06:24:08.222Z,31.10
2019-04-25T06:26:43.900Z,31.10
2019-04-25T06:29:14.071Z,31.00
2019-04-25T06:31:43.890Z,30.90
2019-04-25T06:34:14.069Z,30.80
2019-04-25T06:36:44.072Z,30.50
2019-04-25T06:39:14.200Z,30.20
2019-04-25T06:41:44.195Z,30.00
2019-04-25T06:44:30.684Z,29.70
2019-04-25T06:47:27.965Z,29.30
2019-04-25T06:49:57.431Z,28.40
2019-04-25T06:52:30.046Z,26.90
2019-04-25T06:54:57.400Z,25.70
2019-04-25T06:57:27.022Z,24.60
2019-04-25T06:59:57.315Z,23.80
2019-04-25T07:02:27.313Z,22.90
2019-04-25T07:04:56.728Z,22.30
2019-04-25T07:07:27.004Z,21.80
2019-04-25T07:09:56.966Z,21.30
2019-04-25T07:12:28.948Z,20.90
2019-04-25T07:14:57.088Z,20.60
2019-04-25T07:17:26.220Z,20.30
2019-04-25T07:19:55.447Z,20.20
2019-04-25T07:22:26.047Z,20.00
2019-04-25T07:24:55.977Z,19.90
2019-04-25T07:27:43.177Z,19.70
2019-04-25T07:30:50.058Z,19.70
2019-04-25T07:33:17.858Z,19.60
2019-04-25T07:35:47.336Z,19.60
2019-04-25T07:38:16.829Z,19.60
2019-04-25T07:40:46.452Z,19.70
2019-04-25T07:43:15.650Z,19.70
2019-04-25T07:45:44.783Z,19.80
2019-04-25T07:48:14.042Z,19.80
2019-04-25T07:50:43.819Z,19.90
2019-04-25T07:53:14.246Z,20.00
2019-04-25T07:55:43.823Z,20.00
2019-04-25T07:58:14.337Z,19.90
2019-04-25T08:00:44.011Z,19.80
2019-04-25T08:03:13.788Z,19.70
2019-04-25T08:05:44.257Z,19.70
2019-04-25T08:08:13.622Z,19.60
2019-04-25T08:11:04.955Z,19.50
2019-04-25T08:13:46.395Z,19.30
2019-04-25T08:16:17.026Z,19.30
2019-04-25T08:18:46.759Z,19.30
2019-04-25T08:21:15.929Z,19.30
2019-04-25T08:23:45.206Z,19.40
2019-04-25T08:26:14.452Z,19.50
2019-04-25T08:28:54.948Z,19.60
2019-04-25T08:31:15.012Z,19.60
2019-04-25T08:33:46.644Z,19.70
2019-04-25T08:36:15.087Z,19.70
2019-04-25T08:38:44.849Z,19.80
2019-04-25T08:41:14.152Z,19.80
2019-04-25T08:43:45.281Z,19.80
2019-04-25T08:46:14.356Z,19.90
2019-04-25T08:49:08.587Z,20.00
2019-04-25T08:51:40.119Z,20.00
2019-04-25T08:54:16.717Z,20.10
2019-04-25T08:56:45.937Z,20.10
2019-04-25T08:59:40.068Z,20.20
2019-04-25T09:02:10.420Z,20.30
2019-04-25T09:04:44.864Z,20.40
2019-04-25T09:07:14.029Z,20.40
2019-04-25T09:09:43.964Z,20.50
2019-04-25T09:12:14.118Z,20.50
2019-04-25T09:14:46.286Z,20.50
2019-04-25T09:17:14.325Z,20.60
2019-04-25T09:19:44.457Z,20.60
2019-04-25T09:22:14.447Z,20.70
2019-04-25T09:24:44.382Z,20.70
2019-04-25T09:27:15.944Z,20.70
2019-04-25T09:29:46.248Z,20.70
2019-04-25T09:32:17.172Z,20.70
2019-04-25T09:34:46.399Z,20.80
2019-04-25T09:37:15.575Z,20.80
2019-04-25T09:40:04.212Z,20.80
2019-04-25T09:42:34.680Z,20.80
2019-04-25T09:45:18.482Z,20.80
2019-04-25T09:47:48.459Z,20.90
2019-04-25T09:50:28.979Z,20.90
2019-04-25T09:52:58.106Z,20.90
2019-04-25T09:55:34.060Z,21.00
2019-04-25T09:58:06.960Z,21.00
2019-04-25T10:00:38.425Z,21.00
2019-04-25T10:03:07.658Z,21.00
2019-04-25T10:05:37.148Z,21.10
2019-04-25T10:08:06.400Z,21.20
2019-04-25T10:10:35.972Z,21.20
2019-04-25T10:13:06.542Z,21.20
2019-04-25T10:16:04.710Z,21.30
2019-04-25T10:18:34.702Z,21.30
2019-04-25T10:21:05.535Z,21.40
2019-04-25T10:23:34.862Z,21.40
2019-04-25T10:26:04.825Z,21.50
2019-04-25T10:28:34.337Z,21.50
2019-04-25T10:31:03.739Z,21.60
2019-04-25T10:33:32.849Z,21.70
2019-04-25T10:36:02.032Z,21.70
2019-04-25T10:38:33.605Z,21.80
2019-04-25T10:41:04.212Z,21.90
2019-04-25T10:43:34.254Z,22.00
2019-04-25T10:46:05.213Z,22.10
2019-04-25T10:48:35.502Z,22.20
2019-04-25T10:51:04.713Z,22.30
2019-04-25T10:53:34.037Z,22.40
2019-04-25T10:56:03.788Z,22.50
2019-04-25T10:58:35.323Z,22.50
2019-04-25T11:01:05.600Z,22.60
2019-04-25T11:03:55.624Z,22.80
2019-04-25T11:06:27.913Z,22.80
2019-04-25T11:08:57.087Z,22.80
2019-04-25T11:11:26.616Z,22.80
2019-04-25T11:13:58.675Z,22.90
2019-04-25T11:16:28.007Z,22.90
2019-04-25T11:18:57.225Z,23.00
2019-04-25T11:21:26.380Z,23.10
2019-04-25T11:23:55.619Z,23.10
2019-04-25T11:26:25.285Z,23.20
2019-04-25T11:28:54.545Z,23.30
2019-04-25T11:31:33.549Z,23.30
2019-04-25T11:34:03.573Z,23.40
2019-04-25T11:36:34.066Z,23.40
2019-04-25T11:39:25.188Z,23.50
2019-04-25T11:41:55.538Z,23.50
2019-04-25T11:44:24.797Z,23.60
2019-04-25T11:46:53.926Z,23.60
2019-04-25T11:49:23.880Z,23.70
2019-04-25T11:51:53.098Z,23.70
2019-04-25T11:54:22.284Z,23.70
2019-04-25T11:56:51.458Z,23.80
2019-04-25T11:59:20.716Z,23.80
2019-04-25T12:01:49.985Z,23.90
2019-04-25T12:04:19.200Z,24.00
2019-04-25T12:06:48.398Z,24.00
2019-04-25T12:09:18.657Z,24.00
2019-04-25T12:11:48.536Z,24.10
2019-04-25T12:14:17.926Z,24.10
2019-04-25T12:16:49.078Z,24.10
2019-04-25T12:19:18.683Z,24.20
2019-04-25T12:21:48.177Z,24.20
2019-04-25T12:24:17.396Z,24.30
2019-04-25T12:26:47.727Z,24.30
2019-04-25T12:29:17.269Z,24.40
2019-04-25T12:31:46.816Z,24.40
2019-04-25T12:34:16.998Z,24.40
2019-04-25T12:36:46.115Z,24.40
2019-04-25T12:39:15.614Z,24.50
2019-04-25T12:41:46.776Z,24.50
2019-04-25T12:44:46.222Z,24.60
2019-04-25T12:47:18.981Z,24.60
2019-04-25T12:49:48.684Z,24.60
2019-04-25T12:52:18.933Z,24.60
2019-04-25T12:54:49.127Z,24.70
2019-04-25T12:57:18.983Z,24.70
2019-04-25T12:59:49.203Z,24.70
2019-04-25T13:02:18.408Z,24.70
2019-04-25T13:04:47.840Z,24.70
2019-04-25T13:07:16.988Z,24.80
2019-04-25T13:09:47.064Z,24.90
2019-04-25T13:12:17.063Z,24.90
2019-04-25T13:14:46.211Z,24.90
2019-04-25T13:17:16.287Z,24.90
2019-04-25T13:19:45.487Z,25.00
2019-04-25T13:22:14.781Z,25.00
2019-04-25T13:24:43.912Z,25.00
2019-04-25T13:27:23.543Z,25.00
2019-04-25T13:30:14.720Z,25.00
2019-04-25T13:33:15.631Z,25.10
2019-04-25T13:36:06.781Z,25.10
2019-04-25T13:38:35.988Z,25.10
2019-04-25T13:41:05.195Z,25.10
2019-04-25T13:43:34.598Z,25.20
2019-04-25T13:46:03.796Z,25.20
2019-04-25T13:48:34.381Z,25.20
2019-04-25T13:51:04.150Z,25.30
2019-04-25T13:53:34.711Z,25.30
2019-04-25T13:56:04.878Z,25.30
2019-04-25T13:58:34.331Z,25.30
2019-04-25T14:01:12.877Z,25.30
2019-04-25T14:03:35.676Z,25.30
2019-04-25T14:06:04.920Z,25.30
2019-04-25T14:08:34.014Z,25.30
2019-04-25T14:11:05.018Z,25.30
2019-04-25T14:13:33.990Z,25.30
2019-04-25T14:16:28.447Z,25.30
2019-04-25T14:19:19.467Z,25.30
2019-04-25T14:21:49.089Z,25.30
2019-04-25T14:24:20.730Z,25.30
2019-04-25T14:26:49.282Z,25.40
2019-04-25T14:29:18.509Z,25.40
2019-04-25T14:31:48.570Z,25.40
2019-04-25T14:34:17.779Z,25.40
2019-04-25T14:36:47.299Z,25.40
2019-04-25T14:39:17.148Z,25.40
2019-04-25T14:41:46.328Z,25.40
2019-04-25T14:44:15.438Z,25.40
2019-04-25T14:46:44.650Z,25.40
2019-04-25T14:49:14.024Z,25.40
2019-04-25T14:51:43.348Z,25.50
2019-04-25T14:54:22.938Z,25.50
2019-04-25T14:57:17.337Z,25.50
2019-04-25T14:59:46.528Z,25.40
2019-04-25T15:02:18.796Z,25.50
2019-04-25T15:04:47.886Z,25.40
2019-04-25T15:07:17.079Z,25.40
2019-04-25T15:09:46.370Z,25.30
2019-04-25T15:12:16.027Z,25.20
2019-04-25T15:14:45.241Z,25.20
2019-04-25T15:17:14.435Z,25.20
2019-04-25T15:19:43.567Z,25.10
2019-04-25T15:22:12.854Z,25.10
2019-04-25T15:24:41.955Z,25.10
2019-04-25T15:27:11.022Z,25.10
2019-04-25T15:29:42.446Z,25.10
2019-04-25T15:32:14.527Z,25.10
2019-04-25T15:34:49.845Z,25.10
2019-04-25T15:37:36.768Z,25.10
2019-04-25T15:40:15.755Z,25.20
2019-04-25T15:43:10.211Z,25.30
2019-04-25T15:45:54.187Z,25.30
2019-04-25T15:48:24.197Z,25.30
2019-04-25T15:50:55.000Z,25.30
2019-04-25T15:53:24.170Z,25.30
2019-04-25T15:55:53.749Z,25.30
2019-04-25T15:58:23.799Z,25.30
2019-04-25T16:00:53.471Z,25.30
2019-04-25T16:03:22.570Z,25.20
2019-04-25T16:05:51.622Z,25.20
2019-04-25T16:08:20.836Z,25.20
2019-04-25T16:10:50.099Z,25.20
2019-04-25T16:13:19.535Z,25.20
2019-04-25T16:15:48.790Z,25.20
2019-04-25T16:18:22.021Z,25.10
2019-04-25T16:20:51.232Z,25.10
2019-04-25T16:23:26.493Z,25.10
2019-04-25T16:25:55.752Z,25.10
2019-04-25T16:28:26.545Z,25.10
2019-04-25T16:30:56.720Z,25.10
2019-04-25T16:33:26.207Z,25.20
2019-04-25T16:35:55.630Z,25.20
2019-04-25T16:38:25.147Z,25.10
2019-04-25T16:40:54.362Z,25.10
2019-04-25T16:43:26.756Z,25.10
2019-04-25T16:45:55.932Z,25.10
2019-04-25T16:48:25.762Z,25.00
2019-04-25T16:50:54.834Z,24.90
2019-04-25T16:53:23.998Z,24.90
2019-04-25T16:55:53.287Z,24.70
2019-04-25T16:58:23.398Z,24.60
2019-04-25T17:00:59.457Z,24.60
2019-04-25T17:03:31.229Z,24.60
2019-04-25T17:05:59.696Z,24.60
2019-04-25T17:08:29.844Z,24.60
2019-04-25T17:11:02.003Z,24.70
2019-04-25T17:13:33.798Z,24.60
2019-04-25T17:16:28.325Z,24.70
2019-04-25T17:19:21.845Z,24.70
2019-04-25T17:21:51.338Z,24.70
2019-04-25T17:24:20.519Z,24.60
2019-04-25T17:26:49.765Z,24.50
2019-04-25T17:29:20.366Z,24.40
2019-04-25T17:32:02.225Z,24.30
2019-04-25T17:34:49.788Z,24.20
2019-04-25T17:37:26.280Z,24.10
2019-04-25T17:39:58.523Z,23.90
2019-04-25T17:42:27.718Z,23.70
2019-04-25T17:44:57.072Z,23.60
2019-04-25T17:47:26.589Z,23.50
2019-04-25T17:49:55.716Z,23.30
2019-04-25T17:52:25.582Z,23.20
2019-04-25T17:54:54.821Z,23.10
2019-04-25T17:57:23.999Z,23.00
2019-04-25T17:59:53.109Z,22.80
2019-04-25T18:02:22.347Z,22.70
2019-04-25T18:04:51.530Z,22.60
2019-04-25T18:07:20.779Z,22.50
2019-04-25T18:09:49.959Z,22.40
2019-04-25T18:12:19.099Z,22.30
2019-04-25T18:14:48.403Z,22.20
2019-04-25T18:17:17.791Z,22.10
2019-04-25T18:19:51.770Z,22.10
2019-04-25T18:22:58.228Z,22.00
2019-04-25T18:25:52.387Z,21.90
2019-04-25T18:28:43.882Z,21.80
2019-04-25T18:31:13.263Z,21.70
2019-04-25T18:33:42.723Z,21.60
2019-04-25T18:36:31.150Z,21.50
2019-04-25T18:39:19.034Z,21.50
2019-04-25T18:41:53.748Z,21.40
2019-04-25T18:44:23.022Z,21.30
2019-04-25T18:46:52.203Z,21.20
2019-04-25T18:49:21.379Z,21.20
2019-04-25T18:51:57.522Z,21.10
2019-04-25T18:54:47.758Z,21.10
2019-04-25T18:57:28.584Z,21.10
2019-04-25T19:00:05.536Z,21.10
2019-04-25T19:03:02.293Z,21.00
2019-04-25T19:05:47.544Z,21.00
2019-04-25T19:08:16.691Z,21.00
2019-04-25T19:10:45.845Z,21.00
2019-04-25T19:13:15.083Z,21.00
2019-04-25T19:15:45.126Z,20.90
2019-04-25T19:18:14.466Z,20.90
2019-04-25T19:20:43.950Z,20.80
2019-04-25T19:23:13.362Z,20.80
2019-04-25T19:25:43.618Z,20.80
2019-04-25T19:28:13.411Z,20.80
2019-04-25T19:30:43.683Z,20.70
2019-04-25T19:33:12.961Z,20.60
2019-04-25T19:35:43.540Z,20.60
2019-04-25T19:38:13.212Z,20.50
2019-04-25T19:41:19.867Z,20.50
2019-04-25T19:44:08.096Z,20.40
2019-04-25T19:46:42.956Z,20.40
2019-04-25T19:49:12.171Z,20.30
2019-04-25T19:51:41.788Z,20.30
2019-04-25T19:54:10.904Z,20.20
2019-04-25T19:56:41.235Z,20.20
2019-04-25T19:59:11.191Z,20.10
2019-04-25T20:01:40.259Z,20.00
2019-04-25T20:04:19.904Z,19.90
2019-04-25T20:07:06.946Z,19.80
2019-04-25T20:09:58.325Z,19.70
2019-04-25T20:12:31.259Z,19.50
2019-04-25T20:15:00.624Z,19.30
2019-04-25T20:17:29.920Z,19.20
2019-04-25T20:20:01.466Z,19.00
2019-04-25T20:22:31.690Z,18.90
2019-04-25T20:25:01.251Z,18.80
2019-04-25T20:27:31.519Z,18.70
2019-04-25T20:30:01.617Z,18.60
2019-04-25T20:32:31.201Z,18.50
2019-04-25T20:35:01.521Z,18.40
2019-04-25T20:37:31.324Z,18.30
2019-04-25T20:40:00.852Z,18.30
2019-04-25T20:42:32.096Z,18.20
2019-04-25T20:45:01.766Z,18.00
2019-04-25T20:47:30.936Z,18.00
2019-04-25T20:50:00.080Z,17.90
2019-04-25T20:52:29.555Z,17.80
2019-04-25T20:54:59.118Z,17.80
2019-04-25T20:57:29.280Z,17.70
2019-04-25T21:00:01.053Z,17.60
2019-04-25T21:02:30.217Z,17.50
2019-04-25T21:05:01.036Z,17.40
2019-04-25T21:07:30.284Z,17.40
2019-04-25T21:09:59.407Z,17.30
2019-04-25T21:12:28.485Z,17.20
2019-04-25T21:15:07.271Z,17.20
2019-04-25T21:18:07.955Z,17.10
2019-04-25T21:20:37.075Z,17.00
2019-04-25T21:23:06.213Z,17.00
2019-04-25T21:25:35.309Z,16.90
2019-04-25T21:28:04.439Z,16.90
2019-04-25T21:30:33.519Z,16.90
2019-04-25T21:33:02.608Z,16.80
2019-04-25T21:35:32.003Z,16.80
2019-04-25T21:38:01.681Z,16.70
2019-04-25T21:40:45.898Z,16.60
2019-04-25T21:43:24.463Z,16.60
2019-04-25T21:45:54.283Z,16.50
2019-04-25T21:48:23.743Z,16.50
2019-04-25T21:50:53.651Z,16.40
2019-04-25T21:53:23.140Z,16.40
2019-04-25T21:55:53.237Z,16.30
2019-04-25T21:58:23.269Z,16.30
2019-04-25T22:01:02.453Z,16.20
2019-04-25T22:03:31.513Z,16.20
2019-04-25T22:06:00.858Z,16.20
2019-04-25T22:08:30.462Z,16.10
2019-04-25T22:11:01.231Z,16.10
2019-04-25T22:13:30.500Z,16.10
2019-04-25T22:15:59.979Z,16.00
2019-04-25T22:18:29.392Z,16.00
2019-04-25T22:20:58.770Z,16.00
2019-04-25T22:23:27.972Z,15.90
2019-04-25T22:25:58.803Z,15.80
2019-04-25T22:28:28.966Z,15.80
2019-04-25T22:31:01.299Z,15.70
2019-04-25T22:33:41.697Z,15.60
2019-04-25T22:36:14.307Z,15.50
2019-04-25T22:38:43.496Z,15.40
2019-04-25T22:41:12.963Z,15.40
2019-04-25T22:43:46.730Z,15.30
2019-04-25T22:46:25.366Z,15.20
2019-04-25T22:48:49.743Z,15.20
2019-04-25T22:51:19.197Z,15.10
2019-04-25T22:53:48.616Z,15.00
2019-04-25T22:56:17.699Z,15.00
2019-04-25T22:58:47.108Z,14.90
2019-04-25T23:01:26.505Z,14.90
2019-04-25T23:03:57.343Z,14.80
2019-04-25T23:06:26.571Z,14.80
2019-04-25T23:08:55.752Z,14.70
2019-04-25T23:11:24.866Z,14.70
2019-04-25T23:13:55.357Z,14.70
2019-04-25T23:16:24.679Z,14.70
2019-04-25T23:18:53.783Z,14.70
2019-04-25T23:21:22.948Z,14.70
2019-04-25T23:23:51.996Z,14.70
2019-04-25T23:26:44.279Z,14.70
2019-04-25T23:29:14.731Z,14.70
2019-04-25T23:31:43.835Z,14.70
2019-04-25T23:34:13.238Z,14.70
2019-04-25T23:36:42.401Z,14.70
2019-04-25T23:39:12.055Z,14.70
2019-04-25T23:41:42.147Z,14.80
2019-04-25T23:44:12.076Z,14.70
2019-04-25T23:46:41.386Z,14.70
2019-04-25T23:49:10.631Z,14.70
2019-04-25T23:51:39.771Z,14.80
2019-04-25T23:54:08.961Z,14.70
2019-04-25T23:56:38.163Z,14.70
2019-04-25T23:59:08.916Z,14.70
